sensor_id;sensor_type;location;lat;lon;timestamp;temperature;humidity
23520;DHT22;11936;50.820;4.336;2022-09-29T00:00:39;11.90;99.90
23520;DHT22;11936;50.820;4.336;2022-09-29T00:03:05;12.00;99.90
23520;DHT22;11936;50.820;4.336;2022-09-29T00:05:31;12.00;99.90
23520;DHT22;11936;50.820;4.336;2022-09-29T00:07:57;11.90;99.90
23520;DHT22;11936;50.820;4.336;2022-09-29T00:10:23;11.90;99.90
23520;DHT22;11936;50.820;4.336;2022-09-29T00:12:49;11.90;99.90
23520;DHT22;11936;50.820;4.336;2022-09-29T00:15:14;12.00;99.90
23520;DHT22;11936;50.820;4.336;2022-09-29T00:17:40;11.90;99.90
23520;DHT22;11936;50.820;4.336;2022-09-29T00:20:06;11.90;99.90
23520;DHT22;11936;50.820;4.336;2022-09-29T00:22:32;11.70;99.90
23520;DHT22;11936;50.820;4.336;2022-09-29T00:24:57;11.70;99.90
23520;DHT22;11936;50.820;4.336;2022-09-29T00:27:23;11.70;99.90
23520;DHT22;11936;50.820;4.336;2022-09-29T00:29:49;11.60;99.90
23520;DHT22;11936;50.820;4.336;2022-09-29T00:32:14;11.70;99.90
23520;DHT22;11936;50.820;4.336;2022-09-29T00:34:40;11.70;99.90
23520;DHT22;11936;50.820;4.336;2022-09-29T00:37:06;11.70;99.90
23520;DHT22;11936;50.820;4.336;2022-09-29T00:39:31;11.70;99.90
23520;DHT22;11936;50.820;4.336;2022-09-29T00:41:57;11.60;99.90
23520;DHT22;11936;50.820;4.336;2022-09-29T00:47:13;11.70;99.90
23520;DHT22;11936;50.820;4.336;2022-09-29T00:50:03;11.70;99.90
23520;DHT22;11936;50.820;4.336;2022-09-29T00:52:42;11.60;99.90
23520;DHT22;11936;50.820;4.336;2022-09-29T00:55:30;11.50;99.90
23520;DHT22;11936;50.820;4.336;2022-09-29T00:58:04;11.60;99.90
23520;DHT22;11936;50.820;4.336;2022-09-29T01:00:30;11.70;99.90
23520;DHT22;11936;50.820;4.336;2022-09-29T01:03:12;11.60;99.90
23520;DHT22;11936;50.820;4.336;2022-09-29T01:05:43;11.60;99.90
23520;DHT22;11936;50.820;4.336;2022-09-29T01:08:24;11.50;99.90
23520;DHT22;11936;50.820;4.336;2022-09-29T01:10:52;11.60;99.90
23520;DHT22;11936;50.820;4.336;2022-09-29T01:13:18;11.70;99.90
23520;DHT22;11936;50.820;4.336;2022-09-29T01:15:45;11.70;99.90
23520;DHT22;11936;50.820;4.336;2022-09-29T01:18:10;11.60;99.90
23520;DHT22;11936;50.820;4.336;2022-09-29T01:20:42;11.60;99.90
23520;DHT22;11936;50.820;4.336;2022-09-29T01:26:21;11.70;99.90
23520;DHT22;11936;50.820;4.336;2022-09-29T01:29:08;11.70;99.90
23520;DHT22;11936;50.820;4.336;2022-09-29T01:37:20;11.60;99.90
23520;DHT22;11936;50.820;4.336;2022-09-29T01:40:14;11.50;99.90
23520;DHT22;11936;50.820;4.336;2022-09-29T01:45:37;11.50;99.90
23520;DHT22;11936;50.820;4.336;2022-09-29T01:48:14;11.50;99.90
23520;DHT22;11936;50.820;4.336;2022-09-29T01:50:45;11.50;99.90
23520;DHT22;11936;50.820;4.336;2022-09-29T01:53:22;11.50;99.90
23520;DHT22;11936;50.820;4.336;2022-09-29T01:55:52;11.60;99.90
23520;DHT22;11936;50.820;4.336;2022-09-29T01:58:29;11.60;99.90
23520;DHT22;11936;50.820;4.336;2022-09-29T02:01:02;11.50;99.90
23520;DHT22;11936;50.820;4.336;2022-09-29T02:03:37;11.50;99.90
23520;DHT22;11936;50.820;4.336;2022-09-29T02:06:12;11.60;99.90
23520;DHT22;11936;50.820;4.336;2022-09-29T02:08:45;11.60;99.90
23520;DHT22;11936;50.820;4.336;2022-09-29T02:11:13;11.50;99.90
23520;DHT22;11936;50.820;4.336;2022-09-29T02:16:25;11.50;99.90
23520;DHT22;11936;50.820;4.336;2022-09-29T02:19:05;11.50;99.90
23520;DHT22;11936;50.820;4.336;2022-09-29T02:21:32;11.60;99.90
23520;DHT22;11936;50.820;4.336;2022-09-29T02:23:58;11.60;99.90
23520;DHT22;11936;50.820;4.336;2022-09-29T02:26:28;11.50;99.90
23520;DHT22;11936;50.820;4.336;2022-09-29T02:28:54;11.50;99.90
23520;DHT22;11936;50.820;4.336;2022-09-29T02:31:20;11.60;99.90
23520;DHT22;11936;50.820;4.336;2022-09-29T02:33:46;11.60;99.90
23520;DHT22;11936;50.820;4.336;2022-09-29T02:51:00;11.30;99.90
23520;DHT22;11936;50.820;4.336;2022-09-29T02:53:58;11.30;99.90
23520;DHT22;11936;50.820;4.336;2022-09-29T02:56:48;11.20;99.90
23520;DHT22;11936;50.820;4.336;2022-09-29T02:59:41;11.30;99.90
23520;DHT22;11936;50.820;4.336;2022-09-29T03:02:07;11.20;99.90
23520;DHT22;11936;50.820;4.336;2022-09-29T03:04:32;11.20;99.90
23520;DHT22;11936;50.820;4.336;2022-09-29T03:06:58;11.20;99.90
23520;DHT22;11936;50.820;4.336;2022-09-29T03:09:23;11.20;99.90
23520;DHT22;11936;50.820;4.336;2022-09-29T03:11:49;11.20;99.90
23520;DHT22;11936;50.820;4.336;2022-09-29T03:14:15;11.30;99.90
23520;DHT22;11936;50.820;4.336;2022-09-29T03:16:40;11.20;99.90
23520;DHT22;11936;50.820;4.336;2022-09-29T03:19:07;11.30;99.90
23520;DHT22;11936;50.820;4.336;2022-09-29T03:21:32;11.20;99.90
23520;DHT22;11936;50.820;4.336;2022-09-29T03:23:58;11.30;99.90
23520;DHT22;11936;50.820;4.336;2022-09-29T03:26:24;11.40;99.90
23520;DHT22;11936;50.820;4.336;2022-09-29T03:28:50;11.30;99.90
23520;DHT22;11936;50.820;4.336;2022-09-29T03:31:16;11.40;99.90
23520;DHT22;11936;50.820;4.336;2022-09-29T03:33:42;11.40;99.90
23520;DHT22;11936;50.820;4.336;2022-09-29T03:36:08;11.40;99.90
23520;DHT22;11936;50.820;4.336;2022-09-29T03:38:34;11.50;99.90
23520;DHT22;11936;50.820;4.336;2022-09-29T03:41:00;11.60;99.90
23520;DHT22;11936;50.820;4.336;2022-09-29T03:43:26;11.70;99.90
23520;DHT22;11936;50.820;4.336;2022-09-29T03:45:53;11.70;99.90
23520;DHT22;11936;50.820;4.336;2022-09-29T03:48:19;11.80;99.90
23520;DHT22;11936;50.820;4.336;2022-09-29T03:50:48;11.80;99.90
23520;DHT22;11936;50.820;4.336;2022-09-29T03:53:14;11.70;99.90
23520;DHT22;11936;50.820;4.336;2022-09-29T03:55:44;11.60;99.90
23520;DHT22;11936;50.820;4.336;2022-09-29T03:58:10;11.70;99.90
23520;DHT22;11936;50.820;4.336;2022-09-29T04:00:35;11.50;99.90
23520;DHT22;11936;50.820;4.336;2022-09-29T04:03:01;11.40;99.90
23520;DHT22;11936;50.820;4.336;2022-09-29T04:05:28;11.30;99.90
23520;DHT22;11936;50.820;4.336;2022-09-29T04:07:54;11.30;99.90
23520;DHT22;11936;50.820;4.336;2022-09-29T04:10:19;11.30;99.90
23520;DHT22;11936;50.820;4.336;2022-09-29T04:12:45;11.40;99.90
23520;DHT22;11936;50.820;4.336;2022-09-29T04:15:10;11.30;99.90
23520;DHT22;11936;50.820;4.336;2022-09-29T04:17:36;11.30;99.90
23520;DHT22;11936;50.820;4.336;2022-09-29T04:20:01;11.30;99.90
23520;DHT22;11936;50.820;4.336;2022-09-29T04:22:27;11.40;99.90
23520;DHT22;11936;50.820;4.336;2022-09-29T04:24:52;11.40;99.90
23520;DHT22;11936;50.820;4.336;2022-09-29T04:27:18;11.40;99.90
23520;DHT22;11936;50.820;4.336;2022-09-29T04:29:44;11.50;99.90
23520;DHT22;11936;50.820;4.336;2022-09-29T04:32:09;11.40;99.90
23520;DHT22;11936;50.820;4.336;2022-09-29T04:34:35;11.40;99.90
23520;DHT22;11936;50.820;4.336;2022-09-29T04:37:01;11.30;99.90
23520;DHT22;11936;50.820;4.336;2022-09-29T04:39:27;11.40;99.90
23520;DHT22;11936;50.820;4.336;2022-09-29T04:41:53;11.50;99.90
23520;DHT22;11936;50.820;4.336;2022-09-29T04:44:18;11.50;99.90
23520;DHT22;11936;50.820;4.336;2022-09-29T04:46:49;11.50;99.90
23520;DHT22;11936;50.820;4.336;2022-09-29T04:49:16;11.50;99.90
23520;DHT22;11936;50.820;4.336;2022-09-29T04:51:42;11.60;99.90
23520;DHT22;11936;50.820;4.336;2022-09-29T04:54:08;11.60;99.90
23520;DHT22;11936;50.820;4.336;2022-09-29T04:56:33;11.60;99.90
23520;DHT22;11936;50.820;4.336;2022-09-29T04:58:59;11.60;99.90
23520;DHT22;11936;50.820;4.336;2022-09-29T05:01:25;11.50;99.90
23520;DHT22;11936;50.820;4.336;2022-09-29T05:03:51;11.40;99.90
23520;DHT22;11936;50.820;4.336;2022-09-29T05:06:16;11.40;99.90
23520;DHT22;11936;50.820;4.336;2022-09-29T05:08:42;11.40;99.90
23520;DHT22;11936;50.820;4.336;2022-09-29T05:11:09;11.40;99.90
23520;DHT22;11936;50.820;4.336;2022-09-29T05:13:35;11.40;99.90
23520;DHT22;11936;50.820;4.336;2022-09-29T05:16:02;11.40;99.90
23520;DHT22;11936;50.820;4.336;2022-09-29T05:18:28;11.40;99.90
23520;DHT22;11936;50.820;4.336;2022-09-29T05:20:54;11.40;99.90
23520;DHT22;11936;50.820;4.336;2022-09-29T05:23:19;11.40;99.90
23520;DHT22;11936;50.820;4.336;2022-09-29T05:25:45;11.40;99.90
23520;DHT22;11936;50.820;4.336;2022-09-29T05:28:12;11.40;99.90
23520;DHT22;11936;50.820;4.336;2022-09-29T05:30:39;11.40;99.90
23520;DHT22;11936;50.820;4.336;2022-09-29T05:33:05;11.40;99.90
23520;DHT22;11936;50.820;4.336;2022-09-29T05:35:31;11.30;99.90
23520;DHT22;11936;50.820;4.336;2022-09-29T05:37:57;11.30;99.90
23520;DHT22;11936;50.820;4.336;2022-09-29T05:40:22;11.30;99.90
23520;DHT22;11936;50.820;4.336;2022-09-29T05:42:51;11.30;99.90
23520;DHT22;11936;50.820;4.336;2022-09-29T05:45:17;11.30;99.90
23520;DHT22;11936;50.820;4.336;2022-09-29T05:47:43;11.30;99.90
23520;DHT22;11936;50.820;4.336;2022-09-29T05:50:10;11.20;99.90
23520;DHT22;11936;50.820;4.336;2022-09-29T05:52:36;11.30;99.90
23520;DHT22;11936;50.820;4.336;2022-09-29T05:55:02;11.30;99.90
23520;DHT22;11936;50.820;4.336;2022-09-29T05:57:28;11.30;99.90
23520;DHT22;11936;50.820;4.336;2022-09-29T05:59:54;11.40;99.90
23520;DHT22;11936;50.820;4.336;2022-09-29T06:02:20;11.40;99.90
23520;DHT22;11936;50.820;4.336;2022-09-29T06:04:46;11.40;99.90
23520;DHT22;11936;50.820;4.336;2022-09-29T06:07:12;11.30;99.90
23520;DHT22;11936;50.820;4.336;2022-09-29T06:09:37;11.30;99.90
23520;DHT22;11936;50.820;4.336;2022-09-29T06:12:03;11.30;99.90
23520;DHT22;11936;50.820;4.336;2022-09-29T06:14:28;11.40;99.90
23520;DHT22;11936;50.820;4.336;2022-09-29T06:16:54;11.30;99.90
23520;DHT22;11936;50.820;4.336;2022-09-29T06:19:20;11.30;99.90
23520;DHT22;11936;50.820;4.336;2022-09-29T06:21:45;11.30;99.90
23520;DHT22;11936;50.820;4.336;2022-09-29T06:24:11;11.20;99.90
23520;DHT22;11936;50.820;4.336;2022-09-29T06:26:37;11.20;99.90
23520;DHT22;11936;50.820;4.336;2022-09-29T06:29:03;11.20;99.90
23520;DHT22;11936;50.820;4.336;2022-09-29T06:31:30;11.30;99.90
23520;DHT22;11936;50.820;4.336;2022-09-29T06:34:00;11.30;99.90
23520;DHT22;11936;50.820;4.336;2022-09-29T06:36:41;11.30;99.90
23520;DHT22;11936;50.820;4.336;2022-09-29T06:39:26;11.20;99.90
23520;DHT22;11936;50.820;4.336;2022-09-29T06:41:51;11.20;99.90
23520;DHT22;11936;50.820;4.336;2022-09-29T06:44:20;11.20;99.90
23520;DHT22;11936;50.820;4.336;2022-09-29T06:46:46;11.30;99.90
23520;DHT22;11936;50.820;4.336;2022-09-29T06:49:13;11.30;99.90
23520;DHT22;11936;50.820;4.336;2022-09-29T06:51:40;11.40;99.90
23520;DHT22;11936;50.820;4.336;2022-09-29T06:54:09;11.40;99.90
23520;DHT22;11936;50.820;4.336;2022-09-29T06:56:34;11.40;99.90
23520;DHT22;11936;50.820;4.336;2022-09-29T06:59:00;11.40;99.90
23520;DHT22;11936;50.820;4.336;2022-09-29T07:01:26;11.50;99.90
23520;DHT22;11936;50.820;4.336;2022-09-29T07:03:51;11.50;99.90
23520;DHT22;11936;50.820;4.336;2022-09-29T07:06:17;11.40;99.90
23520;DHT22;11936;50.820;4.336;2022-09-29T07:08:43;11.50;99.90
23520;DHT22;11936;50.820;4.336;2022-09-29T07:11:09;11.50;99.90
23520;DHT22;11936;50.820;4.336;2022-09-29T07:13:35;11.60;99.90
23520;DHT22;11936;50.820;4.336;2022-09-29T07:16:09;11.70;99.90
23520;DHT22;11936;50.820;4.336;2022-09-29T07:18:36;11.70;99.90
23520;DHT22;11936;50.820;4.336;2022-09-29T07:21:04;11.80;99.90
23520;DHT22;11936;50.820;4.336;2022-09-29T07:23:30;11.70;99.90
23520;DHT22;11936;50.820;4.336;2022-09-29T07:25:55;11.60;99.90
23520;DHT22;11936;50.820;4.336;2022-09-29T07:28:21;11.70;99.90
23520;DHT22;11936;50.820;4.336;2022-09-29T07:30:57;11.70;99.90
23520;DHT22;11936;50.820;4.336;2022-09-29T07:33:23;11.60;99.90
23520;DHT22;11936;50.820;4.336;2022-09-29T07:35:51;11.40;99.90
23520;DHT22;11936;50.820;4.336;2022-09-29T07:38:17;11.40;99.90
23520;DHT22;11936;50.820;4.336;2022-09-29T07:40:42;11.40;99.90
23520;DHT22;11936;50.820;4.336;2022-09-29T07:43:08;11.60;99.90
23520;DHT22;11936;50.820;4.336;2022-09-29T07:45:34;11.60;99.90
23520;DHT22;11936;50.820;4.336;2022-09-29T07:48:00;11.50;99.90
23520;DHT22;11936;50.820;4.336;2022-09-29T07:50:25;11.30;99.90
23520;DHT22;11936;50.820;4.336;2022-09-29T07:52:51;11.60;99.90
23520;DHT22;11936;50.820;4.336;2022-09-29T07:55:17;11.40;99.90
23520;DHT22;11936;50.820;4.336;2022-09-29T07:57:46;11.50;99.90
23520;DHT22;11936;50.820;4.336;2022-09-29T08:00:13;11.50;99.90
23520;DHT22;11936;50.820;4.336;2022-09-29T08:02:38;11.60;99.90
23520;DHT22;11936;50.820;4.336;2022-09-29T08:05:04;11.70;99.90
23520;DHT22;11936;50.820;4.336;2022-09-29T08:07:30;11.70;99.90
23520;DHT22;11936;50.820;4.336;2022-09-29T08:09:55;11.70;99.90
23520;DHT22;11936;50.820;4.336;2022-09-29T08:12:21;11.80;99.90
23520;DHT22;11936;50.820;4.336;2022-09-29T08:14:47;11.80;99.90
23520;DHT22;11936;50.820;4.336;2022-09-29T08:17:13;11.80;99.90
23520;DHT22;11936;50.820;4.336;2022-09-29T08:19:39;11.80;99.90
23520;DHT22;11936;50.820;4.336;2022-09-29T08:22:05;11.80;99.90
23520;DHT22;11936;50.820;4.336;2022-09-29T08:24:30;11.80;99.90
23520;DHT22;11936;50.820;4.336;2022-09-29T08:26:56;11.80;99.90
23520;DHT22;11936;50.820;4.336;2022-09-29T08:29:22;11.90;99.90
23520;DHT22;11936;50.820;4.336;2022-09-29T08:31:48;12.00;99.90
23520;DHT22;11936;50.820;4.336;2022-09-29T08:34:13;12.00;99.90
23520;DHT22;11936;50.820;4.336;2022-09-29T08:36:40;12.10;99.90
23520;DHT22;11936;50.820;4.336;2022-09-29T08:39:05;12.20;99.90
23520;DHT22;11936;50.820;4.336;2022-09-29T08:47:04;12.30;99.90
23520;DHT22;11936;50.820;4.336;2022-09-29T08:49:38;12.30;99.90
23520;DHT22;11936;50.820;4.336;2022-09-29T08:52:14;12.40;99.90
23520;DHT22;11936;50.820;4.336;2022-09-29T08:54:42;12.40;99.90
23520;DHT22;11936;50.820;4.336;2022-09-29T08:57:12;12.40;99.90
23520;DHT22;11936;50.820;4.336;2022-09-29T08:59:45;12.40;99.90
23520;DHT22;11936;50.820;4.336;2022-09-29T09:07:50;12.60;99.90
23520;DHT22;11936;50.820;4.336;2022-09-29T09:13:16;12.60;99.90
23520;DHT22;11936;50.820;4.336;2022-09-29T09:18:34;12.70;99.90
23520;DHT22;11936;50.820;4.336;2022-09-29T09:21:41;12.70;99.90
23520;DHT22;11936;50.820;4.336;2022-09-29T09:24:17;12.70;99.90
23520;DHT22;11936;50.820;4.336;2022-09-29T09:26:45;12.70;99.90
23520;DHT22;11936;50.820;4.336;2022-09-29T09:29:28;12.90;99.90
23520;DHT22;11936;50.820;4.336;2022-09-29T09:32:19;12.90;99.90
23520;DHT22;11936;50.820;4.336;2022-09-29T09:37:40;13.00;99.90
23520;DHT22;11936;50.820;4.336;2022-09-29T09:42:38;13.00;99.90
23520;DHT22;11936;50.820;4.336;2022-09-29T09:45:27;13.00;99.90
23520;DHT22;11936;50.820;4.336;2022-09-29T09:48:21;13.10;99.90
23520;DHT22;11936;50.820;4.336;2022-09-29T09:50:46;13.10;99.90
23520;DHT22;11936;50.820;4.336;2022-09-29T09:53:21;13.10;99.90
23520;DHT22;11936;50.820;4.336;2022-09-29T09:56:09;13.20;99.90
23520;DHT22;11936;50.820;4.336;2022-09-29T10:01:29;13.30;99.90
23520;DHT22;11936;50.820;4.336;2022-09-29T10:03:56;13.20;99.90
23520;DHT22;11936;50.820;4.336;2022-09-29T10:06:23;13.30;99.90
23520;DHT22;11936;50.820;4.336;2022-09-29T10:08:49;13.40;99.90
23520;DHT22;11936;50.820;4.336;2022-09-29T10:13:43;13.50;99.90
23520;DHT22;11936;50.820;4.336;2022-09-29T10:16:15;13.50;99.90
23520;DHT22;11936;50.820;4.336;2022-09-29T10:18:44;13.40;99.90
23520;DHT22;11936;50.820;4.336;2022-09-29T10:24:00;13.50;99.90
23520;DHT22;11936;50.820;4.336;2022-09-29T10:26:47;13.50;99.90
23520;DHT22;11936;50.820;4.336;2022-09-29T10:32:11;13.60;99.90
23520;DHT22;11936;50.820;4.336;2022-09-29T10:34:41;13.70;99.90
23520;DHT22;11936;50.820;4.336;2022-09-29T10:37:28;13.80;99.90
23520;DHT22;11936;50.820;4.336;2022-09-29T10:40:16;13.90;99.90
23520;DHT22;11936;50.820;4.336;2022-09-29T10:42:45;13.80;99.90
23520;DHT22;11936;50.820;4.336;2022-09-29T10:56:15;14.10;99.90
23520;DHT22;11936;50.820;4.336;2022-09-29T10:58:43;14.20;99.90
23520;DHT22;11936;50.820;4.336;2022-09-29T11:01:11;14.20;99.90
23520;DHT22;11936;50.820;4.336;2022-09-29T11:03:53;14.30;99.90
23520;DHT22;11936;50.820;4.336;2022-09-29T11:06:27;14.30;99.90
23520;DHT22;11936;50.820;4.336;2022-09-29T11:09:24;14.40;99.90
23520;DHT22;11936;50.820;4.336;2022-09-29T11:11:57;14.60;99.90
23520;DHT22;11936;50.820;4.336;2022-09-29T11:14:25;14.60;99.90
23520;DHT22;11936;50.820;4.336;2022-09-29T11:16:54;14.70;99.90
23520;DHT22;11936;50.820;4.336;2022-09-29T11:19:20;14.70;99.90
23520;DHT22;11936;50.820;4.336;2022-09-29T11:22:10;14.70;99.90
23520;DHT22;11936;50.820;4.336;2022-09-29T11:27:42;14.90;99.90
23520;DHT22;11936;50.820;4.336;2022-09-29T11:30:19;15.00;99.90
23520;DHT22;11936;50.820;4.336;2022-09-29T11:36:06;15.20;99.90
23520;DHT22;11936;50.820;4.336;2022-09-29T11:41:19;15.40;99.90
23520;DHT22;11936;50.820;4.336;2022-09-29T11:43:58;15.50;99.90
23520;DHT22;11936;50.820;4.336;2022-09-29T11:57:51;15.50;99.90
23520;DHT22;11936;50.820;4.336;2022-09-29T12:00:20;15.60;99.90
23520;DHT22;11936;50.820;4.336;2022-09-29T12:11:53;15.40;99.90
23520;DHT22;11936;50.820;4.336;2022-09-29T12:14:49;15.40;99.90
23520;DHT22;11936;50.820;4.336;2022-09-29T12:17:18;15.30;99.90
23520;DHT22;11936;50.820;4.336;2022-09-29T12:19:47;15.30;99.90
23520;DHT22;11936;50.820;4.336;2022-09-29T12:22:18;15.40;99.90
23520;DHT22;11936;50.820;4.336;2022-09-29T12:24:49;15.50;99.90
23520;DHT22;11936;50.820;4.336;2022-09-29T12:27:23;15.50;99.90
23520;DHT22;11936;50.820;4.336;2022-09-29T12:30:01;15.50;99.90
23520;DHT22;11936;50.820;4.336;2022-09-29T12:32:45;15.50;99.90
23520;DHT22;11936;50.820;4.336;2022-09-29T12:38:17;15.50;99.90
23520;DHT22;11936;50.820;4.336;2022-09-29T12:41:18;15.50;99.90
23520;DHT22;11936;50.820;4.336;2022-09-29T12:43:55;15.60;99.90
23520;DHT22;11936;50.820;4.336;2022-09-29T12:46:32;15.60;99.90
23520;DHT22;11936;50.820;4.336;2022-09-29T12:51:53;15.60;99.90
23520;DHT22;11936;50.820;4.336;2022-09-29T12:54:31;15.70;99.90
23520;DHT22;11936;50.820;4.336;2022-09-29T12:56:57;15.60;99.90
23520;DHT22;11936;50.820;4.336;2022-09-29T13:00:12;15.70;99.90
23520;DHT22;11936;50.820;4.336;2022-09-29T13:20:06;16.50;99.90
23520;DHT22;11936;50.820;4.336;2022-09-29T13:23:01;16.70;99.90
23520;DHT22;11936;50.820;4.336;2022-09-29T13:25:46;16.60;99.00
23520;DHT22;11936;50.820;4.336;2022-09-29T13:28:40;16.60;99.60
23520;DHT22;11936;50.820;4.336;2022-09-29T13:31:11;16.60;97.30
23520;DHT22;11936;50.820;4.336;2022-09-29T13:33:39;16.70;97.30
23520;DHT22;11936;50.820;4.336;2022-09-29T13:36:05;16.50;98.30
23520;DHT22;11936;50.820;4.336;2022-09-29T13:38:36;16.40;97.80
23520;DHT22;11936;50.820;4.336;2022-09-29T13:49:01;16.40;99.30
23520;DHT22;11936;50.820;4.336;2022-09-29T13:54:31;16.40;99.00
23520;DHT22;11936;50.820;4.336;2022-09-29T13:59:44;16.40;98.80
23520;DHT22;11936;50.820;4.336;2022-09-29T14:04:54;16.30;99.30
23520;DHT22;11936;50.820;4.336;2022-09-29T14:13:04;16.00;99.00
23520;DHT22;11936;50.820;4.336;2022-09-29T14:15:35;16.00;99.00
23520;DHT22;11936;50.820;4.336;2022-09-29T14:18:06;15.90;99.50
23520;DHT22;11936;50.820;4.336;2022-09-29T14:20:37;15.90;99.60
23520;DHT22;11936;50.820;4.336;2022-09-29T14:23:04;15.90;99.70
23520;DHT22;11936;50.820;4.336;2022-09-29T14:25:47;15.90;99.90
23520;DHT22;11936;50.820;4.336;2022-09-29T14:28:19;16.00;99.90
23520;DHT22;11936;50.820;4.336;2022-09-29T14:30:50;15.90;99.90
23520;DHT22;11936;50.820;4.336;2022-09-29T14:33:28;15.90;99.90
23520;DHT22;11936;50.820;4.336;2022-09-29T14:38:30;16.00;99.90
23520;DHT22;11936;50.820;4.336;2022-09-29T14:43:45;16.10;99.90
23520;DHT22;11936;50.820;4.336;2022-09-29T14:49:46;16.20;99.90
23520;DHT22;11936;50.820;4.336;2022-09-29T14:52:39;16.30;99.90
23520;DHT22;11936;50.820;4.336;2022-09-29T14:59:11;16.60;99.90
23520;DHT22;11936;50.820;4.336;2022-09-29T15:01:11;16.70;99.60
23520;DHT22;11936;50.820;4.336;2022-09-29T15:03:49;16.70;99.40
23520;DHT22;11936;50.820;4.336;2022-09-29T15:09:01;16.60;99.00
23520;DHT22;11936;50.820;4.336;2022-09-29T15:11:35;16.60;99.40
23520;DHT22;11936;50.820;4.336;2022-09-29T15:14:29;16.60;99.40
23520;DHT22;11936;50.820;4.336;2022-09-29T15:20:04;16.50;98.10
23520;DHT22;11936;50.820;4.336;2022-09-29T15:25:33;16.20;99.20
23520;DHT22;11936;50.820;4.336;2022-09-29T15:28:16;16.10;99.90
23520;DHT22;11936;50.820;4.336;2022-09-29T15:30:44;16.10;99.90
23520;DHT22;11936;50.820;4.336;2022-09-29T15:33:22;16.10;99.90
23520;DHT22;11936;50.820;4.336;2022-09-29T15:36:06;16.10;99.90
23520;DHT22;11936;50.820;4.336;2022-09-29T15:38:33;16.10;99.90
23520;DHT22;11936;50.820;4.336;2022-09-29T15:41:16;16.00;99.90
23520;DHT22;11936;50.820;4.336;2022-09-29T15:44:11;16.10;99.80
23520;DHT22;11936;50.820;4.336;2022-09-29T15:49:14;15.80;99.90
23520;DHT22;11936;50.820;4.336;2022-09-29T15:51:42;15.80;99.90
23520;DHT22;11936;50.820;4.336;2022-09-29T15:54:13;15.70;99.90
23520;DHT22;11936;50.820;4.336;2022-09-29T15:56:39;15.70;99.90
23520;DHT22;11936;50.820;4.336;2022-09-29T15:59:53;15.60;99.90
23520;DHT22;11936;50.820;4.336;2022-09-29T16:02:29;15.60;99.90
23520;DHT22;11936;50.820;4.336;2022-09-29T16:05:05;15.50;99.90
23520;DHT22;11936;50.820;4.336;2022-09-29T16:07:34;15.50;99.90
23520;DHT22;11936;50.820;4.336;2022-09-29T16:10:12;15.50;99.90
23520;DHT22;11936;50.820;4.336;2022-09-29T16:12:46;15.50;99.90
23520;DHT22;11936;50.820;4.336;2022-09-29T16:15:33;15.50;99.90
23520;DHT22;11936;50.820;4.336;2022-09-29T16:18:14;15.40;99.90
23520;DHT22;11936;50.820;4.336;2022-09-29T16:20:42;15.40;99.90
23520;DHT22;11936;50.820;4.336;2022-09-29T16:28:34;15.40;99.90
23520;DHT22;11936;50.820;4.336;2022-09-29T16:31:02;15.40;99.90
23520;DHT22;11936;50.820;4.336;2022-09-29T16:33:28;15.50;99.90
23520;DHT22;11936;50.820;4.336;2022-09-29T16:36:34;15.50;99.90
23520;DHT22;11936;50.820;4.336;2022-09-29T16:38:53;15.50;99.90
23520;DHT22;11936;50.820;4.336;2022-09-29T16:41:34;15.50;99.90
23520;DHT22;11936;50.820;4.336;2022-09-29T16:44:13;15.50;99.90
23520;DHT22;11936;50.820;4.336;2022-09-29T16:46:47;15.50;99.90
23520;DHT22;11936;50.820;4.336;2022-09-29T16:51:47;15.50;99.90
23520;DHT22;11936;50.820;4.336;2022-09-29T16:54:31;15.40;99.90
23520;DHT22;11936;50.820;4.336;2022-09-29T16:57:29;15.50;99.90
23520;DHT22;11936;50.820;4.336;2022-09-29T17:00:08;15.50;99.90
23520;DHT22;11936;50.820;4.336;2022-09-29T17:02:35;15.50;99.90
23520;DHT22;11936;50.820;4.336;2022-09-29T17:05:01;15.50;99.90
23520;DHT22;11936;50.820;4.336;2022-09-29T17:07:30;15.40;99.90
23520;DHT22;11936;50.820;4.336;2022-09-29T17:09:58;15.40;99.90
23520;DHT22;11936;50.820;4.336;2022-09-29T17:12:26;15.30;99.90
23520;DHT22;11936;50.820;4.336;2022-09-29T17:14:52;15.30;99.90
23520;DHT22;11936;50.820;4.336;2022-09-29T17:17:23;15.20;99.90
23520;DHT22;11936;50.820;4.336;2022-09-29T17:19:50;15.20;99.90
23520;DHT22;11936;50.820;4.336;2022-09-29T17:22:33;15.10;99.90
23520;DHT22;11936;50.820;4.336;2022-09-29T17:24:59;15.10;99.90
23520;DHT22;11936;50.820;4.336;2022-09-29T17:27:26;15.20;99.90
23520;DHT22;11936;50.820;4.336;2022-09-29T17:30:19;15.30;99.90
23520;DHT22;11936;50.820;4.336;2022-09-29T17:32:47;15.20;99.90
23520;DHT22;11936;50.820;4.336;2022-09-29T17:35:14;15.10;99.90
23520;DHT22;11936;50.820;4.336;2022-09-29T17:37:40;15.20;99.90
23520;DHT22;11936;50.820;4.336;2022-09-29T17:42:55;15.10;99.90
23520;DHT22;11936;50.820;4.336;2022-09-29T17:45:23;15.10;99.90
23520;DHT22;11936;50.820;4.336;2022-09-29T17:47:50;15.10;99.90
23520;DHT22;11936;50.820;4.336;2022-09-29T17:52:54;15.20;99.90
23520;DHT22;11936;50.820;4.336;2022-09-29T17:55:20;15.20;99.90
23520;DHT22;11936;50.820;4.336;2022-09-29T17:57:48;15.20;99.90
23520;DHT22;11936;50.820;4.336;2022-09-29T18:00:20;15.20;99.90
23520;DHT22;11936;50.820;4.336;2022-09-29T18:02:47;15.20;99.90
23520;DHT22;11936;50.820;4.336;2022-09-29T18:05:14;15.10;99.90
23520;DHT22;11936;50.820;4.336;2022-09-29T18:07:46;15.10;99.90
23520;DHT22;11936;50.820;4.336;2022-09-29T18:10:23;15.10;99.90
23520;DHT22;11936;50.820;4.336;2022-09-29T18:12:49;15.00;99.90
23520;DHT22;11936;50.820;4.336;2022-09-29T18:15:15;14.90;99.90
23520;DHT22;11936;50.820;4.336;2022-09-29T18:17:42;15.00;99.90
23520;DHT22;11936;50.820;4.336;2022-09-29T18:20:17;15.00;99.90
23520;DHT22;11936;50.820;4.336;2022-09-29T18:22:43;15.00;99.90
23520;DHT22;11936;50.820;4.336;2022-09-29T18:25:10;15.10;99.90
23520;DHT22;11936;50.820;4.336;2022-09-29T18:27:35;15.00;99.90
23520;DHT22;11936;50.820;4.336;2022-09-29T18:30:05;14.90;99.90
23520;DHT22;11936;50.820;4.336;2022-09-29T18:32:31;15.00;99.90
23520;DHT22;11936;50.820;4.336;2022-09-29T18:34:57;15.00;99.90
23520;DHT22;11936;50.820;4.336;2022-09-29T18:37:23;15.00;99.90
23520;DHT22;11936;50.820;4.336;2022-09-29T18:39:49;14.90;99.90
23520;DHT22;11936;50.820;4.336;2022-09-29T18:42:14;15.00;99.90
23520;DHT22;11936;50.820;4.336;2022-09-29T18:44:40;15.00;99.90
23520;DHT22;11936;50.820;4.336;2022-09-29T18:47:07;15.00;99.90
23520;DHT22;11936;50.820;4.336;2022-09-29T18:49:33;14.90;99.90
23520;DHT22;11936;50.820;4.336;2022-09-29T18:51:59;14.90;99.90
23520;DHT22;11936;50.820;4.336;2022-09-29T18:54:24;15.00;99.90
23520;DHT22;11936;50.820;4.336;2022-09-29T18:56:50;15.00;99.90
23520;DHT22;11936;50.820;4.336;2022-09-29T18:59:16;15.00;99.90